createdAt,value
2019-02-17T00:01:18.708Z,99651.62
2019-02-17T00:03:47.481Z,99648.22
2019-02-17T00:06:16.299Z,99652.44
2019-02-17T00:08:45.090Z,99655.27
2019-02-17T00:11:13.898Z,99649.48
2019-02-17T00:13:42.684Z,99643.97
2019-02-17T00:16:11.495Z,99639.12
2019-02-17T00:18:40.284Z,99648.23
2019-02-17T00:21:09.086Z,99644.01
2019-02-17T00:23:37.864Z,99643.84
2019-02-17T00:26:06.740Z,99640.92
2019-02-17T00:28:35.539Z,99642.72
2019-02-17T00:31:04.472Z,99636.11
2019-02-17T00:33:33.335Z,99633.93
2019-02-17T00:36:02.116Z,99639.70
2019-02-17T00:38:30.902Z,99633.54
2019-02-17T00:40:59.712Z,99643.59
2019-02-17T00:43:28.576Z,99639.09
2019-02-17T00:45:57.368Z,99643.11
2019-02-17T00:48:26.599Z,99646.12
2019-02-17T00:50:55.560Z,99642.48
2019-02-17T00:53:24.435Z,99644.45
2019-02-17T00:55:53.296Z,99634.59
2019-02-17T00:58:22.121Z,99634.84
2019-02-17T01:00:50.965Z,99628.91
2019-02-17T01:03:19.778Z,99631.50
2019-02-17T01:05:48.561Z,99632.05
2019-02-17T01:08:17.412Z,99634.89
2019-02-17T01:10:46.303Z,99632.91
2019-02-17T01:13:15.117Z,99632.80
2019-02-17T01:15:43.891Z,99632.80
2019-02-17T01:18:12.709Z,99630.89
2019-02-17T01:20:41.552Z,99629.95
2019-02-17T01:23:10.415Z,99637.98
2019-02-17T01:25:39.280Z,99644.56
2019-02-17T01:28:08.142Z,99641.52
2019-02-17T01:30:36.982Z,99639.55
2019-02-17T01:33:05.924Z,99633.98
2019-02-17T01:35:34.739Z,99637.09
2019-02-17T01:38:03.598Z,99635.44
2019-02-17T01:40:32.392Z,99634.83
2019-02-17T01:43:01.191Z,99635.06
2019-02-17T01:45:30.130Z,99637.00
2019-02-17T01:47:58.932Z,99634.42
2019-02-17T01:50:28.734Z,99632.63
2019-02-17T01:52:57.537Z,99629.52
2019-02-17T01:55:26.335Z,99636.31
2019-02-17T01:57:55.147Z,99629.91
2019-02-17T02:00:24.105Z,99628.28
2019-02-17T02:02:52.904Z,99632.88
2019-02-17T02:05:21.873Z,99634.00
2019-02-17T02:07:50.751Z,99637.58
2019-02-17T02:10:19.668Z,99633.91
2019-02-17T02:12:48.579Z,99633.15
2019-02-17T02:15:17.447Z,99635.45
2019-02-17T02:17:46.338Z,99624.95
2019-02-17T02:20:15.319Z,99624.38
2019-02-17T02:22:44.176Z,99627.91
2019-02-17T02:25:13.002Z,99628.73
2019-02-17T02:27:41.798Z,99623.92
2019-02-17T02:30:11.833Z,99626.59
2019-02-17T02:32:40.770Z,99627.02
2019-02-17T02:35:09.722Z,99625.02
2019-02-17T02:37:38.507Z,99618.33
2019-02-17T02:40:07.482Z,99617.76
2019-02-17T02:42:36.282Z,99614.78
2019-02-17T02:45:05.768Z,99625.10
2019-02-17T02:47:34.551Z,99617.28
2019-02-17T02:50:03.448Z,99614.61
2019-02-17T02:52:32.263Z,99613.95
2019-02-17T02:55:01.087Z,99612.83
2019-02-17T02:57:29.900Z,99616.38
2019-02-17T02:59:58.813Z,99615.47
2019-02-17T03:02:27.604Z,99608.23
2019-02-17T03:04:56.410Z,99611.09
2019-02-17T03:07:25.289Z,99614.72
2019-02-17T03:09:54.097Z,99614.72
2019-02-17T03:12:22.978Z,99616.78
2019-02-17T03:14:51.866Z,99612.95
2019-02-17T03:17:20.674Z,99624.38
2019-02-17T03:19:49.556Z,99619.02
2019-02-17T03:22:18.347Z,99615.54
2019-02-17T03:24:47.253Z,99610.28
2019-02-17T03:27:16.016Z,99618.63
2019-02-17T03:29:44.840Z,99612.87
2019-02-17T03:32:13.635Z,99611.67
2019-02-17T03:34:42.519Z,99611.91
2019-02-17T03:37:11.316Z,99621.34
2019-02-17T03:39:40.340Z,99621.09
2019-02-17T03:42:09.214Z,99619.03
2019-02-17T03:44:38.281Z,99614.38
2019-02-17T03:47:07.077Z,99613.73
2019-02-17T03:49:36.030Z,99610.91
2019-02-17T03:52:04.923Z,99612.55
2019-02-17T03:54:33.803Z,99609.39
2019-02-17T03:57:03.379Z,99609.58
2019-02-17T03:59:32.205Z,99608.20
2019-02-17T04:02:01.015Z,99602.39
2019-02-17T04:04:29.808Z,99604.79
2019-02-17T04:06:58.633Z,99605.17
2019-02-17T04:09:27.524Z,99610.66
2019-02-17T04:11:56.351Z,99615.03
2019-02-17T04:14:25.233Z,99608.61
2019-02-17T04:16:54.116Z,99613.44
2019-02-17T04:19:22.921Z,99612.67
2019-02-17T04:21:51.723Z,99610.91
2019-02-17T04:24:20.517Z,99607.38
2019-02-17T04:26:49.390Z,99608.53
2019-02-17T04:29:18.186Z,99616.75
2019-02-17T04:31:47.070Z,99620.12
2019-02-17T04:34:15.948Z,99619.86
2019-02-17T04:36:44.758Z,99621.53
2019-02-17T04:39:13.729Z,99622.09
2019-02-17T04:41:42.594Z,99619.25
2019-02-17T04:44:11.382Z,99616.41
2019-02-17T04:46:40.185Z,99613.40
2019-02-17T04:49:08.990Z,99616.41
2019-02-17T04:51:37.795Z,99614.12
2019-02-17T04:54:06.592Z,99615.62
2019-02-17T04:56:35.807Z,99611.84
2019-02-17T04:59:04.730Z,99612.23
2019-02-17T05:01:33.729Z,99607.79
2019-02-17T05:04:02.668Z,99609.59
2019-02-17T05:06:31.527Z,99613.58
2019-02-17T05:09:00.423Z,99607.95
2019-02-17T05:11:29.252Z,99604.25
2019-02-17T05:13:58.057Z,99606.43
2019-02-17T05:16:26.910Z,99601.94
2019-02-17T05:18:55.730Z,99608.62
2019-02-17T05:21:24.533Z,99607.48
2019-02-17T05:23:53.428Z,99608.09
2019-02-17T05:26:22.221Z,99612.05
2019-02-17T05:28:51.042Z,99614.91
2019-02-17T05:31:19.845Z,99605.30
2019-02-17T05:33:48.794Z,99607.45
2019-02-17T05:36:17.771Z,99609.12
2019-02-17T05:38:46.631Z,99598.77
2019-02-17T05:41:15.447Z,99602.48
2019-02-17T05:43:44.231Z,99603.63
2019-02-17T05:46:13.028Z,99608.04
2019-02-17T05:48:41.909Z,99596.81
2019-02-17T05:51:10.735Z,99600.41
2019-02-17T05:53:39.525Z,99602.75
2019-02-17T05:56:08.344Z,99608.94
2019-02-17T05:58:38.095Z,99603.73
2019-02-17T06:01:07.488Z,99604.47
2019-02-17T06:03:36.413Z,99605.96
2019-02-17T06:06:05.290Z,99596.97
2019-02-17T06:08:34.094Z,99602.75
2019-02-17T06:11:02.909Z,99615.54
2019-02-17T06:13:31.804Z,99609.94
2019-02-17T06:16:00.592Z,99609.51
2019-02-17T06:18:29.393Z,99608.81
2019-02-17T06:20:58.383Z,99610.30
2019-02-17T06:23:27.188Z,99613.05
2019-02-17T06:25:55.989Z,99619.89
2019-02-17T06:28:24.770Z,99614.43
2019-02-17T06:30:53.561Z,99625.97
2019-02-17T06:33:22.347Z,99624.30
2019-02-17T06:35:51.279Z,99627.70
2019-02-17T06:38:20.090Z,99632.89
2019-02-17T06:40:48.874Z,99635.64
2019-02-17T06:43:17.775Z,99630.28
2019-02-17T06:45:46.573Z,99628.17
2019-02-17T06:48:15.361Z,99625.66
2019-02-17T06:50:44.233Z,99635.73
2019-02-17T06:53:13.062Z,99638.15
2019-02-17T06:55:56.454Z,99634.92
2019-02-17T06:58:25.257Z,99645.91
2019-02-17T07:00:56.118Z,99640.05
2019-02-17T07:03:24.918Z,99640.78
2019-02-17T07:06:12.670Z,99641.16
2019-02-17T07:08:41.531Z,99631.42
2019-02-17T07:11:11.229Z,99632.84
2019-02-17T07:13:40.041Z,99625.09
2019-02-17T07:16:08.818Z,99632.84
2019-02-17T07:18:37.627Z,99635.63
2019-02-17T07:21:06.413Z,99636.20
2019-02-17T07:23:35.223Z,99634.36
2019-02-17T07:26:04.030Z,99644.16
2019-02-17T07:28:32.836Z,99644.73
2019-02-17T07:31:01.619Z,99639.44
2019-02-17T07:33:30.431Z,99630.07
2019-02-17T07:35:59.290Z,99629.66
2019-02-17T07:38:28.086Z,99636.69
2019-02-17T07:40:56.950Z,99628.73
2019-02-17T07:43:25.754Z,99634.20
2019-02-17T07:45:54.536Z,99628.52
2019-02-17T07:48:23.332Z,99626.81
2019-02-17T07:50:52.409Z,99631.45
2019-02-17T07:53:21.231Z,99622.92
2019-02-17T07:55:50.018Z,99634.16
2019-02-17T07:58:18.833Z,99632.09
2019-02-17T08:00:47.630Z,99632.05
2019-02-17T08:03:16.429Z,99635.98
2019-02-17T08:05:45.230Z,99637.84
2019-02-17T08:08:14.008Z,99632.44
2019-02-17T08:10:42.805Z,99631.73
2019-02-17T08:13:11.583Z,99630.59
2019-02-17T08:15:40.387Z,99630.39
2019-02-17T08:18:09.174Z,99626.61
2019-02-17T08:20:37.955Z,99623.00
2019-02-17T08:23:06.744Z,99623.48
2019-02-17T08:25:35.543Z,99630.22
2019-02-17T08:28:04.444Z,99624.44
2019-02-17T08:30:33.319Z,99620.11
2019-02-17T08:33:02.104Z,99623.53
2019-02-17T08:35:30.986Z,99609.15
2019-02-17T08:37:59.785Z,99609.15
2019-02-17T08:40:28.581Z,99605.63
2019-02-17T08:42:57.374Z,99610.75
2019-02-17T08:45:26.250Z,99614.50
2019-02-17T08:47:55.032Z,99617.09
2019-02-17T08:50:23.844Z,99611.33
2019-02-17T08:52:52.634Z,99618.09
2019-02-17T08:55:21.427Z,99618.88
2019-02-17T08:57:50.205Z,99608.91
2019-02-17T09:00:19.086Z,99610.27
2019-02-17T09:02:48.088Z,99611.50
2019-02-17T09:05:17.016Z,99607.05
2019-02-17T09:07:46.756Z,99612.88
2019-02-17T09:10:15.713Z,99614.70
2019-02-17T09:12:44.505Z,99605.34
2019-02-17T09:15:13.472Z,99607.28
2019-02-17T09:17:42.282Z,99610.41
2019-02-17T09:20:11.503Z,99606.77
2019-02-17T09:22:40.712Z,99603.06
2019-02-17T09:25:10.567Z,99606.73
2019-02-17T09:27:39.522Z,99607.45
2019-02-17T09:30:11.906Z,99608.78
2019-02-17T09:32:40.693Z,99605.52
2019-02-17T09:35:09.614Z,99595.32
2019-02-17T09:37:38.486Z,99592.37
2019-02-17T09:40:09.291Z,99591.14
2019-02-17T09:42:38.090Z,99590.66
2019-02-17T09:45:07.935Z,99588.69
2019-02-17T09:47:36.803Z,99589.38
2019-02-17T09:50:06.667Z,99589.81
2019-02-17T09:52:35.476Z,99585.95
2019-02-17T09:55:04.350Z,99588.38
2019-02-17T09:57:33.171Z,99585.17
2019-02-17T10:00:01.966Z,99582.72
2019-02-17T10:02:30.752Z,99579.47
2019-02-17T10:04:59.602Z,99583.02
2019-02-17T10:07:28.472Z,99575.69
2019-02-17T10:09:57.277Z,99572.00
2019-02-17T10:12:26.150Z,99577.36
2019-02-17T10:14:54.941Z,99580.19
2019-02-17T10:17:23.727Z,99581.03
2019-02-17T10:19:52.697Z,99579.39
2019-02-17T10:22:21.493Z,99575.70
2019-02-17T10:24:50.265Z,99568.75
2019-02-17T10:27:19.076Z,99570.47
2019-02-17T10:29:48.820Z,99573.05
2019-02-17T10:32:17.615Z,99566.28
2019-02-17T10:34:46.385Z,99569.30
2019-02-17T10:37:15.176Z,99565.50
2019-02-17T10:39:44.299Z,99563.03
2019-02-17T10:42:13.168Z,99563.86
2019-02-17T10:44:41.984Z,99569.82
2019-02-17T10:47:10.794Z,99559.15
2019-02-17T10:49:39.644Z,99554.72
2019-02-17T10:52:08.594Z,99554.23
2019-02-17T10:54:37.382Z,99550.77
2019-02-17T10:57:06.332Z,99541.36
2019-02-17T10:59:35.139Z,99539.68
2019-02-17T11:02:04.004Z,99534.25
2019-02-17T11:04:32.790Z,99530.69
2019-02-17T11:07:01.682Z,99530.67
2019-02-17T11:09:30.542Z,99524.09
2019-02-17T11:11:59.329Z,99521.36
2019-02-17T11:14:28.198Z,99509.92
2019-02-17T11:16:56.994Z,99502.57
2019-02-17T11:19:25.780Z,99503.63
2019-02-17T11:21:54.567Z,99494.98
2019-02-17T11:24:23.443Z,99495.16
2019-02-17T11:26:52.295Z,99493.14
2019-02-17T11:29:21.345Z,99495.52
2019-02-17T11:31:50.492Z,99490.87
2019-02-17T11:34:19.283Z,99488.11
2019-02-17T11:36:48.070Z,99474.82
2019-02-17T11:39:20.930Z,99467.86
2019-02-17T11:41:50.726Z,99469.68
2019-02-17T11:44:19.541Z,99455.97
2019-02-17T11:46:48.413Z,99455.97
2019-02-17T11:49:17.213Z,99454.14
2019-02-17T11:51:45.996Z,99448.53
2019-02-17T11:54:14.860Z,99447.03
2019-02-17T11:56:43.715Z,99440.56
2019-02-17T11:59:12.509Z,99439.77
2019-02-17T12:01:41.365Z,99438.72
2019-02-17T12:04:10.156Z,99437.09
2019-02-17T12:06:39.020Z,99432.08
2019-02-17T12:09:09.147Z,99431.71
2019-02-17T12:11:38.035Z,99423.80
2019-02-17T12:14:06.912Z,99419.25
2019-02-17T12:16:37.230Z,99416.98
2019-02-17T12:19:08.896Z,99415.41
2019-02-17T12:21:55.437Z,99412.39
2019-02-17T12:24:43.368Z,99406.44
2019-02-17T12:27:19.985Z,99407.86
2019-02-17T12:29:55.609Z,99400.63
2019-02-17T12:32:29.282Z,99392.13
2019-02-17T12:34:58.094Z,99389.39
2019-02-17T12:37:26.933Z,99391.33
2019-02-17T12:39:55.722Z,99389.60
2019-02-17T12:42:24.635Z,99388.24
2019-02-17T12:44:53.433Z,99388.45
2019-02-17T12:47:22.600Z,99381.66
2019-02-17T12:49:51.390Z,99375.58
2019-02-17T12:52:21.348Z,99371.99
2019-02-17T12:54:50.135Z,99371.99
2019-02-17T12:57:18.927Z,99365.53
2019-02-17T12:59:47.720Z,99360.48
2019-02-17T13:02:16.503Z,99358.11
2019-02-17T13:04:45.291Z,99356.88
2019-02-17T13:07:14.158Z,99356.83
2019-02-17T13:09:42.989Z,99356.41
2019-02-17T13:12:11.771Z,99351.05
2019-02-17T13:14:40.566Z,99345.34
2019-02-17T13:17:09.359Z,99343.93
2019-02-17T13:19:38.295Z,99336.34
2019-02-17T13:22:07.082Z,99334.69
2019-02-17T13:24:35.875Z,99335.47
2019-02-17T13:27:04.746Z,99326.01
2019-02-17T13:29:33.576Z,99326.01
2019-02-17T13:32:02.374Z,99314.06
2019-02-17T13:34:31.242Z,99314.36
2019-02-17T13:37:00.063Z,99313.04
2019-02-17T13:39:30.476Z,99314.07
2019-02-17T13:41:59.232Z,99313.30
2019-02-17T13:44:28.134Z,99304.31
2019-02-17T13:46:56.982Z,99302.44
2019-02-17T13:49:25.781Z,99303.94
2019-02-17T13:51:54.788Z,99306.81
2019-02-17T13:54:23.664Z,99297.63
2019-02-17T13:56:52.446Z,99294.03
2019-02-17T13:59:21.305Z,99297.30
2019-02-17T14:01:50.224Z,99297.91
2019-02-17T14:04:19.057Z,99292.36
2019-02-17T14:06:47.947Z,99289.50
2019-02-17T14:09:16.744Z,99285.97
2019-02-17T14:11:45.532Z,99284.58
2019-02-17T14:14:14.394Z,99282.35
2019-02-17T14:16:43.179Z,99275.69
2019-02-17T14:19:11.991Z,99281.91
2019-02-17T14:21:40.790Z,99274.33
2019-02-17T14:24:09.698Z,99272.89
2019-02-17T14:26:38.519Z,99274.20
2019-02-17T14:29:07.302Z,99273.91
2019-02-17T14:31:36.167Z,99269.09
2019-02-17T14:34:05.142Z,99271.17
2019-02-17T14:36:34.007Z,99268.48
2019-02-17T14:39:03.016Z,99258.69
2019-02-17T14:41:31.803Z,99260.07
2019-02-17T14:44:00.593Z,99258.14
2019-02-17T14:46:29.377Z,99253.87
2019-02-17T14:48:58.174Z,99257.45
2019-02-17T14:51:26.958Z,99252.91
2019-02-17T14:53:56.768Z,99262.75
2019-02-17T14:56:25.554Z,99255.77
2019-02-17T14:58:54.331Z,99255.77
2019-02-17T15:01:23.109Z,99250.91
2019-02-17T15:03:51.897Z,99248.50
2019-02-17T15:06:20.693Z,99250.81
2019-02-17T15:08:49.465Z,99250.60
2019-02-17T15:11:18.285Z,99251.59
2019-02-17T15:13:47.076Z,99247.41
2019-02-17T15:16:15.872Z,99240.23
2019-02-17T15:18:44.725Z,99231.44
2019-02-17T15:21:13.541Z,99237.25
2019-02-17T15:23:42.344Z,99236.91
2019-02-17T15:26:11.214Z,99242.98
2019-02-17T15:28:40.109Z,99231.91
2019-02-17T15:31:08.983Z,99233.47
2019-02-17T15:33:37.844Z,99231.52
2019-02-17T15:36:06.630Z,99232.53
2019-02-17T15:38:35.608Z,99229.00
2019-02-17T15:41:04.770Z,99232.63
2019-02-17T15:43:33.670Z,99232.77
2019-02-17T15:46:02.673Z,99225.75
2019-02-17T15:48:31.576Z,99231.45
2019-02-17T15:51:06.449Z,99229.44
2019-02-17T15:53:31.161Z,99227.71
2019-02-17T15:55:59.998Z,99225.13
2019-02-17T15:58:28.872Z,99220.53
2019-02-17T16:00:57.790Z,99220.75
2019-02-17T16:03:26.579Z,99223.32
2019-02-17T16:05:55.454Z,99215.87
2019-02-17T16:08:24.330Z,99218.72
2019-02-17T16:10:53.268Z,99215.98
2019-02-17T16:13:22.043Z,99216.77
2019-02-17T16:15:50.836Z,99215.94
2019-02-17T16:18:19.610Z,99216.89
2019-02-17T16:20:48.405Z,99218.64
2019-02-17T16:23:17.180Z,99219.04
2019-02-17T16:25:46.047Z,99214.38
2019-02-17T16:28:14.833Z,99215.43
2019-02-17T16:30:43.713Z,99220.53
2019-02-17T16:33:12.502Z,99209.68
2019-02-17T16:35:41.326Z,99209.68
2019-02-17T16:38:10.098Z,99217.75
2019-02-17T16:40:38.887Z,99214.16
2019-02-17T16:43:07.746Z,99211.41
2019-02-17T16:45:36.537Z,99213.96
2019-02-17T16:48:05.388Z,99212.27
2019-02-17T16:50:34.334Z,99214.34
2019-02-17T16:53:03.204Z,99219.47
2019-02-17T16:55:32.018Z,99221.77
2019-02-17T16:58:01.142Z,99224.20
2019-02-17T17:00:30.490Z,99228.44
2019-02-17T17:02:59.301Z,99221.89
2019-02-17T17:05:28.235Z,99226.06
2019-02-17T17:07:57.117Z,99219.62
2019-02-17T17:10:25.985Z,99230.25
2019-02-17T17:12:54.782Z,99221.03
2019-02-17T17:15:23.633Z,99222.38
2019-02-17T17:17:52.499Z,99225.38
2019-02-17T17:20:21.410Z,99224.45
2019-02-17T17:22:50.276Z,99229.06
2019-02-17T17:25:19.822Z,99231.55
2019-02-17T17:27:48.620Z,99235.75
2019-02-17T17:30:17.574Z,99239.56
2019-02-17T17:32:46.525Z,99237.17
2019-02-17T17:35:15.483Z,99243.98
2019-02-17T17:37:44.322Z,99242.38
2019-02-17T17:40:13.218Z,99248.93
2019-02-17T17:42:42.096Z,99245.53
2019-02-17T17:45:12.662Z,99245.38
2019-02-17T17:47:41.448Z,99248.58
2019-02-17T17:50:11.795Z,99252.91
2019-02-17T17:52:40.626Z,99256.59
2019-02-17T17:55:10.736Z,99250.78
2019-02-17T17:57:39.545Z,99249.48
2019-02-17T18:00:10.088Z,99250.77
2019-02-17T18:02:38.951Z,99251.77
2019-02-17T18:05:09.578Z,99250.50
2019-02-17T18:07:38.536Z,99247.89
2019-02-17T18:10:08.918Z,99253.41
2019-02-17T18:12:37.759Z,99256.28
2019-02-17T18:15:07.625Z,99253.64
2019-02-17T18:17:36.558Z,99254.37
2019-02-17T18:20:05.772Z,99254.70
2019-02-17T18:22:34.634Z,99248.86
2019-02-17T18:25:04.545Z,99256.72
2019-02-17T18:27:33.419Z,99246.09
2019-02-17T18:30:02.348Z,99249.36
2019-02-17T18:32:31.160Z,99243.83
2019-02-17T18:34:59.934Z,99236.92
2019-02-17T18:37:28.719Z,99240.32
2019-02-17T18:39:57.509Z,99239.60
2019-02-17T18:42:26.297Z,99234.84
2019-02-17T18:44:55.063Z,99243.73
2019-02-17T18:47:23.878Z,99236.17
2019-02-17T18:49:52.669Z,99231.04
2019-02-17T18:52:21.455Z,99233.55
2019-02-17T18:54:50.250Z,99226.22
2019-02-17T18:57:19.393Z,99229.19
2019-02-17T18:59:48.174Z,99230.89
2019-02-17T19:02:16.957Z,99236.98
2019-02-17T19:04:45.747Z,99234.74
2019-02-17T19:07:14.600Z,99239.06
2019-02-17T19:09:43.398Z,99235.70
2019-02-17T19:12:12.166Z,99241.09
2019-02-17T19:14:40.955Z,99245.67
2019-02-17T19:17:09.807Z,99245.41
2019-02-17T19:19:38.599Z,99241.20
2019-02-17T19:22:07.676Z,99243.88
2019-02-17T19:24:37.097Z,99246.19
2019-02-17T19:27:09.668Z,99243.77
2019-02-17T19:29:38.528Z,99237.34
2019-02-17T19:32:07.392Z,99239.14
2019-02-17T19:34:37.087Z,99239.14
2019-02-17T19:37:05.892Z,99250.36
2019-02-17T19:39:34.714Z,99241.77
2019-02-17T19:42:03.597Z,99247.66
2019-02-17T19:44:32.432Z,99252.18
2019-02-17T19:47:01.276Z,99249.91
2019-02-17T19:49:33.647Z,99251.31
2019-02-17T19:52:02.290Z,99252.97
2019-02-17T19:54:31.095Z,99263.05
2019-02-17T19:57:00.048Z,99267.56
2019-02-17T19:59:31.163Z,99265.44
2019-02-17T20:01:59.326Z,99264.57
2019-02-17T20:04:38.444Z,99262.94
2019-02-17T20:07:07.335Z,99265.41
2019-02-17T20:09:36.127Z,99262.83
2019-02-17T20:12:05.012Z,99269.36
2019-02-17T20:14:33.870Z,99270.77
2019-02-17T20:17:02.721Z,99267.31
2019-02-17T20:19:31.609Z,99279.73
2019-02-17T20:22:00.548Z,99283.31
2019-02-17T20:24:29.434Z,99293.16
2019-02-17T20:26:58.228Z,99290.58
2019-02-17T20:29:27.079Z,99299.70
2019-02-17T20:31:55.862Z,99302.77
2019-02-17T20:34:24.750Z,99294.20
2019-02-17T20:36:53.526Z,99297.64
2019-02-17T20:39:22.392Z,99294.88
2019-02-17T20:41:51.213Z,99288.78
2019-02-17T20:44:20.047Z,99295.94
2019-02-17T20:46:48.886Z,99294.67
2019-02-17T20:49:17.699Z,99295.53
2019-02-17T20:51:46.500Z,99295.91
2019-02-17T20:54:15.293Z,99296.38
2019-02-17T20:56:44.144Z,99298.98
2019-02-17T20:59:12.994Z,99298.98
2019-02-17T21:01:41.839Z,99298.30
2019-02-17T21:04:10.758Z,99296.30
2019-02-17T21:06:39.606Z,99297.45
2019-02-17T21:09:08.583Z,99299.89
2019-02-17T21:11:37.386Z,99296.22
2019-02-17T21:14:06.246Z,99297.72
2019-02-17T21:16:35.177Z,99297.22
2019-02-17T21:19:04.049Z,99296.97
2019-02-17T21:21:32.863Z,99301.77
2019-02-17T21:24:01.715Z,99299.07
2019-02-17T21:26:30.506Z,99299.34
2019-02-17T21:28:59.289Z,99299.34
2019-02-17T21:31:28.148Z,99300.98
2019-02-17T21:33:56.920Z,99298.40
2019-02-17T21:36:25.706Z,99297.84
2019-02-17T21:38:54.494Z,99303.38
2019-02-17T21:41:23.364Z,99298.73
2019-02-17T21:43:52.148Z,99301.70
2019-02-17T21:46:21.041Z,99300.44
2019-02-17T21:48:49.825Z,99298.76
2019-02-17T21:51:18.623Z,99294.31
2019-02-17T21:53:47.409Z,99302.89
2019-02-17T21:56:16.198Z,99299.20
2019-02-17T21:58:44.974Z,99289.70
2019-02-17T22:02:42.181Z,99292.30
2019-02-17T22:05:11.127Z,99295.46
2019-02-17T22:07:40.012Z,99281.30
2019-02-17T22:10:09.873Z,99285.80
2019-02-17T22:12:38.882Z,99271.84
2019-02-17T22:15:10.021Z,99286.41
2019-02-17T22:17:38.794Z,99280.19
2019-02-17T22:20:08.417Z,99285.56
2019-02-17T22:22:37.362Z,99289.50
2019-02-17T22:25:06.707Z,99282.77
2019-02-17T22:27:35.591Z,99289.33
2019-02-17T22:30:05.268Z,99282.26
2019-02-17T22:32:34.120Z,99284.27
2019-02-17T22:35:03.222Z,99282.08
2019-02-17T22:37:32.016Z,99281.73
2019-02-17T22:40:00.803Z,99280.56
2019-02-17T22:42:29.599Z,99281.88
2019-02-17T22:44:58.367Z,99280.41
2019-02-17T22:47:27.166Z,99282.59
2019-02-17T22:49:55.955Z,99283.16
2019-02-17T22:52:24.745Z,99280.80
2019-02-17T22:54:53.536Z,99276.18
2019-02-17T22:57:22.383Z,99272.95
2019-02-17T22:59:51.231Z,99273.50
2019-02-17T23:02:20.225Z,99275.81
2019-02-17T23:04:49.009Z,99276.25
2019-02-17T23:07:18.295Z,99275.45
2019-02-17T23:09:47.095Z,99277.90
2019-02-17T23:12:16.731Z,99276.98
2019-02-17T23:14:45.550Z,99279.00
2019-02-17T23:17:14.435Z,99276.63
2019-02-17T23:19:43.232Z,99283.91
2019-02-17T23:22:11.994Z,99283.02
2019-02-17T23:24:40.919Z,99280.09
2019-02-17T23:27:09.794Z,99285.05
2019-02-17T23:29:38.569Z,99285.81
2019-02-17T23:32:07.514Z,99289.00
2019-02-17T23:34:36.301Z,99291.50
2019-02-17T23:37:05.674Z,99289.00
2019-02-17T23:39:34.514Z,99283.78
2019-02-17T23:42:03.302Z,99288.34
2019-02-17T23:44:32.293Z,99287.84
2019-02-17T23:47:01.163Z,99285.77
2019-02-17T23:49:31.121Z,99290.14
2019-02-17T23:51:59.987Z,99287.70
2019-02-17T23:54:28.861Z,99291.53
2019-02-17T23:56:57.658Z,99296.33
2019-02-17T23:59:26.434Z,99297.75
